sensor_id;sensor_type;location;lat;lon;timestamp;temperature;humidity
68217;DHT22;55037;52.354;4.992;2023-05-10T00:02:18;15.00;91.50
68217;DHT22;55037;52.354;4.992;2023-05-10T00:04:45;14.90;91.40
68217;DHT22;55037;52.354;4.992;2023-05-10T00:07:12;14.80;91.40
68217;DHT22;55037;52.354;4.992;2023-05-10T00:09:39;14.90;91.40
68217;DHT22;55037;52.354;4.992;2023-05-10T00:12:07;14.80;91.40
68217;DHT22;55037;52.354;4.992;2023-05-10T00:14:34;14.80;91.30
68217;DHT22;55037;52.354;4.992;2023-05-10T00:17:01;14.70;91.30
68217;DHT22;55037;52.354;4.992;2023-05-10T00:19:28;14.80;91.30
68217;DHT22;55037;52.354;4.992;2023-05-10T00:21:56;14.70;91.30
68217;DHT22;55037;52.354;4.992;2023-05-10T00:24:23;14.70;91.30
68217;DHT22;55037;52.354;4.992;2023-05-10T00:26:50;14.60;90.90
68217;DHT22;55037;52.354;4.992;2023-05-10T00:29:18;14.60;91.30
68217;DHT22;55037;52.354;4.992;2023-05-10T00:31:47;14.60;91.40
68217;DHT22;55037;52.354;4.992;2023-05-10T00:34:14;14.60;91.50
68217;DHT22;55037;52.354;4.992;2023-05-10T00:36:41;14.60;91.50
68217;DHT22;55037;52.354;4.992;2023-05-10T00:39:09;14.60;91.50
68217;DHT22;55037;52.354;4.992;2023-05-10T00:41:36;14.60;91.70
68217;DHT22;55037;52.354;4.992;2023-05-10T00:44:05;14.60;91.70
68217;DHT22;55037;52.354;4.992;2023-05-10T00:46:32;14.60;91.60
68217;DHT22;55037;52.354;4.992;2023-05-10T00:49:00;14.60;91.60
68217;DHT22;55037;52.354;4.992;2023-05-10T00:51:27;14.60;91.60
68217;DHT22;55037;52.354;4.992;2023-05-10T00:53:55;14.60;91.60
68217;DHT22;55037;52.354;4.992;2023-05-10T00:56:22;14.50;91.50
68217;DHT22;55037;52.354;4.992;2023-05-10T00:58:51;14.50;91.50
68217;DHT22;55037;52.354;4.992;2023-05-10T01:01:20;14.50;91.50
68217;DHT22;55037;52.354;4.992;2023-05-10T01:03:48;14.50;91.50
68217;DHT22;55037;52.354;4.992;2023-05-10T01:06:15;14.40;91.50
68217;DHT22;55037;52.354;4.992;2023-05-10T01:08:42;14.40;91.60
68217;DHT22;55037;52.354;4.992;2023-05-10T01:11:09;14.50;91.80
68217;DHT22;55037;52.354;4.992;2023-05-10T01:13:38;14.50;92.00
68217;DHT22;55037;52.354;4.992;2023-05-10T01:16:06;14.60;92.00
68217;DHT22;55037;52.354;4.992;2023-05-10T01:18:39;14.60;92.40
68217;DHT22;55037;52.354;4.992;2023-05-10T01:32:57;14.80;91.80
68217;DHT22;55037;52.354;4.992;2023-05-10T01:41:18;14.90;91.80
68217;DHT22;55037;52.354;4.992;2023-05-10T01:43:57;14.90;91.80
68217;DHT22;55037;52.354;4.992;2023-05-10T01:46:35;15.00;91.80
68217;DHT22;55037;52.354;4.992;2023-05-10T01:49:09;15.00;91.70
68217;DHT22;55037;52.354;4.992;2023-05-10T01:51:45;14.90;91.60
68217;DHT22;55037;52.354;4.992;2023-05-10T01:54:17;14.90;91.60
68217;DHT22;55037;52.354;4.992;2023-05-10T01:56:50;14.90;91.20
68217;DHT22;55037;52.354;4.992;2023-05-10T01:59:22;14.90;91.60
68217;DHT22;55037;52.354;4.992;2023-05-10T02:01:53;14.90;91.60
68217;DHT22;55037;52.354;4.992;2023-05-10T02:04:22;14.90;91.60
68217;DHT22;55037;52.354;4.992;2023-05-10T02:06:51;14.90;91.60
68217;DHT22;55037;52.354;4.992;2023-05-10T02:09:20;15.00;91.70
68217;DHT22;55037;52.354;4.992;2023-05-10T02:11:49;15.00;91.60
68217;DHT22;55037;52.354;4.992;2023-05-10T02:14:18;15.00;91.60
68217;DHT22;55037;52.354;4.992;2023-05-10T02:16:46;15.00;91.20
68217;DHT22;55037;52.354;4.992;2023-05-10T02:19:14;15.00;91.60
68217;DHT22;55037;52.354;4.992;2023-05-10T02:21:43;15.00;91.50
68217;DHT22;55037;52.354;4.992;2023-05-10T02:24:11;15.00;91.40
68217;DHT22;55037;52.354;4.992;2023-05-10T02:26:40;14.90;91.40
68217;DHT22;55037;52.354;4.992;2023-05-10T02:29:09;14.90;91.40
68217;DHT22;55037;52.354;4.992;2023-05-10T02:31:36;14.80;91.50
68217;DHT22;55037;52.354;4.992;2023-05-10T02:34:06;14.80;91.50
68217;DHT22;55037;52.354;4.992;2023-05-10T02:36:34;14.80;91.50
68217;DHT22;55037;52.354;4.992;2023-05-10T02:39:04;14.80;91.50
68217;DHT22;55037;52.354;4.992;2023-05-10T02:41:37;14.80;91.50
68217;DHT22;55037;52.354;4.992;2023-05-10T02:44:06;14.80;91.60
68217;DHT22;55037;52.354;4.992;2023-05-10T02:46:35;14.80;91.20
68217;DHT22;55037;52.354;4.992;2023-05-10T02:49:03;14.70;91.50
68217;DHT22;55037;52.354;4.992;2023-05-10T02:51:32;14.80;91.60
68217;DHT22;55037;52.354;4.992;2023-05-10T02:54:09;14.70;91.50
68217;DHT22;55037;52.354;4.992;2023-05-10T02:56:40;14.70;91.50
68217;DHT22;55037;52.354;4.992;2023-05-10T02:59:09;14.70;91.50
68217;DHT22;55037;52.354;4.992;2023-05-10T03:01:36;14.70;91.60
68217;DHT22;55037;52.354;4.992;2023-05-10T03:04:04;14.70;91.60
68217;DHT22;55037;52.354;4.992;2023-05-10T03:06:31;14.70;91.60
68217;DHT22;55037;52.354;4.992;2023-05-10T03:08:59;14.70;91.60
68217;DHT22;55037;52.354;4.992;2023-05-10T03:16:57;14.70;91.60
68217;DHT22;55037;52.354;4.992;2023-05-10T03:19:30;14.70;91.70
68217;DHT22;55037;52.354;4.992;2023-05-10T03:22:03;14.70;91.60
68217;DHT22;55037;52.354;4.992;2023-05-10T03:24:35;14.70;91.50
68217;DHT22;55037;52.354;4.992;2023-05-10T03:27:03;14.70;91.50
68217;DHT22;55037;52.354;4.992;2023-05-10T03:29:32;14.70;91.50
68217;DHT22;55037;52.354;4.992;2023-05-10T03:32:00;14.60;91.50
68217;DHT22;55037;52.354;4.992;2023-05-10T03:34:30;14.60;91.60
68217;DHT22;55037;52.354;4.992;2023-05-10T03:36:58;14.60;91.60
68217;DHT22;55037;52.354;4.992;2023-05-10T03:39:29;14.60;91.50
68217;DHT22;55037;52.354;4.992;2023-05-10T03:41:58;14.60;91.60
68217;DHT22;55037;52.354;4.992;2023-05-10T03:44:25;14.60;91.70
68217;DHT22;55037;52.354;4.992;2023-05-10T03:46:53;14.60;91.70
68217;DHT22;55037;52.354;4.992;2023-05-10T03:49:20;14.60;91.70
68217;DHT22;55037;52.354;4.992;2023-05-10T03:51:49;14.60;91.50
68217;DHT22;55037;52.354;4.992;2023-05-10T03:54:16;14.60;91.50
68217;DHT22;55037;52.354;4.992;2023-05-10T03:56:44;14.60;91.60
68217;DHT22;55037;52.354;4.992;2023-05-10T03:59:11;14.60;91.60
68217;DHT22;55037;52.354;4.992;2023-05-10T04:01:38;14.60;91.70
68217;DHT22;55037;52.354;4.992;2023-05-10T04:04:05;14.60;91.60
68217;DHT22;55037;52.354;4.992;2023-05-10T04:06:33;14.60;91.50
68217;DHT22;55037;52.354;4.992;2023-05-10T04:09:00;14.50;91.30
68217;DHT22;55037;52.354;4.992;2023-05-10T04:11:30;14.50;91.40
68217;DHT22;55037;52.354;4.992;2023-05-10T04:13:58;14.40;91.30
68217;DHT22;55037;52.354;4.992;2023-05-10T04:16:25;14.40;91.40
68217;DHT22;55037;52.354;4.992;2023-05-10T04:18:53;14.40;91.50
68217;DHT22;55037;52.354;4.992;2023-05-10T04:21:20;14.40;91.60
68217;DHT22;55037;52.354;4.992;2023-05-10T04:23:47;14.40;91.50
68217;DHT22;55037;52.354;4.992;2023-05-10T04:26:15;14.40;91.40
68217;DHT22;55037;52.354;4.992;2023-05-10T04:28:42;14.50;91.50
68217;DHT22;55037;52.354;4.992;2023-05-10T04:31:10;14.40;91.40
68217;DHT22;55037;52.354;4.992;2023-05-10T04:33:37;14.40;91.20
68217;DHT22;55037;52.354;4.992;2023-05-10T04:36:05;14.40;91.30
68217;DHT22;55037;52.354;4.992;2023-05-10T04:38:32;14.40;91.30
68217;DHT22;55037;52.354;4.992;2023-05-10T04:41:07;14.40;91.30
68217;DHT22;55037;52.354;4.992;2023-05-10T04:43:34;14.40;91.40
68217;DHT22;55037;52.354;4.992;2023-05-10T04:46:02;14.40;91.40
68217;DHT22;55037;52.354;4.992;2023-05-10T04:48:30;14.50;91.50
68217;DHT22;55037;52.354;4.992;2023-05-10T04:50:57;14.50;91.40
68217;DHT22;55037;52.354;4.992;2023-05-10T04:53:24;14.60;91.30
68217;DHT22;55037;52.354;4.992;2023-05-10T04:55:54;14.60;91.20
68217;DHT22;55037;52.354;4.992;2023-05-10T04:58:21;14.60;91.20
68217;DHT22;55037;52.354;4.992;2023-05-10T05:00:48;14.70;91.40
68217;DHT22;55037;52.354;4.992;2023-05-10T05:03:16;14.70;91.30
68217;DHT22;55037;52.354;4.992;2023-05-10T05:05:43;14.70;91.40
68217;DHT22;55037;52.354;4.992;2023-05-10T05:08:11;14.80;91.30
68217;DHT22;55037;52.354;4.992;2023-05-10T05:10:39;14.90;91.00
68217;DHT22;55037;52.354;4.992;2023-05-10T05:13:06;14.80;91.00
68217;DHT22;55037;52.354;4.992;2023-05-10T05:15:34;14.90;91.00
68217;DHT22;55037;52.354;4.992;2023-05-10T05:18:01;14.90;91.10
68217;DHT22;55037;52.354;4.992;2023-05-10T05:20:32;14.90;90.90
68217;DHT22;55037;52.354;4.992;2023-05-10T05:23:02;14.90;91.00
68217;DHT22;55037;52.354;4.992;2023-05-10T05:25:29;14.90;91.00
68217;DHT22;55037;52.354;4.992;2023-05-10T05:27:56;14.90;91.00
68217;DHT22;55037;52.354;4.992;2023-05-10T05:30:23;14.90;91.00
68217;DHT22;55037;52.354;4.992;2023-05-10T05:32:51;15.00;90.90
68217;DHT22;55037;52.354;4.992;2023-05-10T05:35:18;15.00;90.90
68217;DHT22;55037;52.354;4.992;2023-05-10T05:37:45;15.00;90.90
68217;DHT22;55037;52.354;4.992;2023-05-10T05:40:13;15.00;90.70
68217;DHT22;55037;52.354;4.992;2023-05-10T05:42:41;14.90;90.40
68217;DHT22;55037;52.354;4.992;2023-05-10T05:45:09;14.90;90.60
68217;DHT22;55037;52.354;4.992;2023-05-10T05:47:40;14.80;90.60
68217;DHT22;55037;52.354;4.992;2023-05-10T05:50:07;14.80;90.70
68217;DHT22;55037;52.354;4.992;2023-05-10T05:52:35;14.80;90.90
68217;DHT22;55037;52.354;4.992;2023-05-10T05:55:03;14.90;90.80
68217;DHT22;55037;52.354;4.992;2023-05-10T05:57:30;14.90;90.90
68217;DHT22;55037;52.354;4.992;2023-05-10T05:59:57;15.00;90.90
68217;DHT22;55037;52.354;4.992;2023-05-10T06:02:25;15.10;90.80
68217;DHT22;55037;52.354;4.992;2023-05-10T06:04:52;15.20;91.10
68217;DHT22;55037;52.354;4.992;2023-05-10T06:07:19;15.40;91.30
68217;DHT22;55037;52.354;4.992;2023-05-10T06:09:47;15.70;91.20
68217;DHT22;55037;52.354;4.992;2023-05-10T06:12:14;15.90;90.80
68217;DHT22;55037;52.354;4.992;2023-05-10T06:14:41;16.00;90.20
68217;DHT22;55037;52.354;4.992;2023-05-10T06:17:08;16.00;90.30
68217;DHT22;55037;52.354;4.992;2023-05-10T06:19:36;16.10;90.10
68217;DHT22;55037;52.354;4.992;2023-05-10T06:22:03;16.10;89.80
68217;DHT22;55037;52.354;4.992;2023-05-10T06:24:31;16.10;89.60
68217;DHT22;55037;52.354;4.992;2023-05-10T06:26:58;16.00;89.20
68217;DHT22;55037;52.354;4.992;2023-05-10T06:29:27;15.90;89.30
68217;DHT22;55037;52.354;4.992;2023-05-10T06:31:54;15.80;89.30
68217;DHT22;55037;52.354;4.992;2023-05-10T06:34:21;15.70;89.20
68217;DHT22;55037;52.354;4.992;2023-05-10T06:36:49;15.60;89.60
68217;DHT22;55037;52.354;4.992;2023-05-10T06:39:16;15.60;89.70
68217;DHT22;55037;52.354;4.992;2023-05-10T06:41:43;15.50;89.90
68217;DHT22;55037;52.354;4.992;2023-05-10T06:44:10;15.50;90.00
68217;DHT22;55037;52.354;4.992;2023-05-10T06:46:38;15.50;90.10
68217;DHT22;55037;52.354;4.992;2023-05-10T06:49:05;15.60;90.20
68217;DHT22;55037;52.354;4.992;2023-05-10T06:51:32;15.60;90.20
68217;DHT22;55037;52.354;4.992;2023-05-10T06:54:00;15.70;90.00
68217;DHT22;55037;52.354;4.992;2023-05-10T06:56:28;15.70;90.00
68217;DHT22;55037;52.354;4.992;2023-05-10T06:58:55;15.70;90.00
68217;DHT22;55037;52.354;4.992;2023-05-10T07:01:22;15.70;90.00
68217;DHT22;55037;52.354;4.992;2023-05-10T07:03:50;15.80;90.40
68217;DHT22;55037;52.354;4.992;2023-05-10T07:06:17;16.00;90.30
68217;DHT22;55037;52.354;4.992;2023-05-10T07:08:59;16.10;90.10
68217;DHT22;55037;52.354;4.992;2023-05-10T07:11:27;16.20;89.40
68217;DHT22;55037;52.354;4.992;2023-05-10T07:13:54;16.20;88.70
68217;DHT22;55037;52.354;4.992;2023-05-10T07:16:21;16.10;88.90
68217;DHT22;55037;52.354;4.992;2023-05-10T07:18:49;16.30;89.30
68217;DHT22;55037;52.354;4.992;2023-05-10T07:21:17;16.50;89.40
68217;DHT22;55037;52.354;4.992;2023-05-10T07:23:44;16.60;88.80
68217;DHT22;55037;52.354;4.992;2023-05-10T07:26:12;16.70;88.70
68217;DHT22;55037;52.354;4.992;2023-05-10T07:28:39;16.80;88.20
68217;DHT22;55037;52.354;4.992;2023-05-10T07:31:06;16.90;88.40
68217;DHT22;55037;52.354;4.992;2023-05-10T07:33:33;17.10;88.10
68217;DHT22;55037;52.354;4.992;2023-05-10T07:36:01;17.30;87.60
68217;DHT22;55037;52.354;4.992;2023-05-10T07:38:28;17.40;86.50
68217;DHT22;55037;52.354;4.992;2023-05-10T07:40:55;17.40;86.20
68217;DHT22;55037;52.354;4.992;2023-05-10T07:43:22;17.40;86.00
68217;DHT22;55037;52.354;4.992;2023-05-10T07:45:50;17.40;85.40
68217;DHT22;55037;52.354;4.992;2023-05-10T07:48:20;17.20;84.80
68217;DHT22;55037;52.354;4.992;2023-05-10T07:50:47;17.00;85.60
68217;DHT22;55037;52.354;4.992;2023-05-10T07:53:14;16.90;85.80
68217;DHT22;55037;52.354;4.992;2023-05-10T07:55:41;16.80;86.40
68217;DHT22;55037;52.354;4.992;2023-05-10T07:58:08;16.80;86.80
68217;DHT22;55037;52.354;4.992;2023-05-10T08:00:35;16.80;86.80
68217;DHT22;55037;52.354;4.992;2023-05-10T08:03:06;16.80;86.30
68217;DHT22;55037;52.354;4.992;2023-05-10T08:05:33;16.80;86.40
68217;DHT22;55037;52.354;4.992;2023-05-10T08:08:01;16.80;87.40
68217;DHT22;55037;52.354;4.992;2023-05-10T08:10:29;17.00;88.10
68217;DHT22;55037;52.354;4.992;2023-05-10T08:12:56;17.40;87.50
68217;DHT22;55037;52.354;4.992;2023-05-10T08:15:25;17.80;87.10
68217;DHT22;55037;52.354;4.992;2023-05-10T08:17:52;18.20;86.50
68217;DHT22;55037;52.354;4.992;2023-05-10T08:20:19;18.70;85.70
68217;DHT22;55037;52.354;4.992;2023-05-10T08:22:47;19.30;84.80
68217;DHT22;55037;52.354;4.992;2023-05-10T08:25:17;19.90;83.70
68217;DHT22;55037;52.354;4.992;2023-05-10T08:27:45;20.60;81.30
68217;DHT22;55037;52.354;4.992;2023-05-10T08:30:15;20.90;79.30
68217;DHT22;55037;52.354;4.992;2023-05-10T08:32:42;21.00;77.70
68217;DHT22;55037;52.354;4.992;2023-05-10T08:35:10;20.80;77.30
68217;DHT22;55037;52.354;4.992;2023-05-10T08:37:37;20.50;78.40
68217;DHT22;55037;52.354;4.992;2023-05-10T08:40:05;20.20;77.90
68217;DHT22;55037;52.354;4.992;2023-05-10T08:42:34;19.90;79.00
68217;DHT22;55037;52.354;4.992;2023-05-10T08:45:03;19.90;79.90
68217;DHT22;55037;52.354;4.992;2023-05-10T08:47:31;19.90;80.40
68217;DHT22;55037;52.354;4.992;2023-05-10T08:49:59;20.00;80.00
68217;DHT22;55037;52.354;4.992;2023-05-10T08:52:28;20.20;79.50
68217;DHT22;55037;52.354;4.992;2023-05-10T08:54:56;20.10;78.50
68217;DHT22;55037;52.354;4.992;2023-05-10T08:57:24;20.00;79.20
68217;DHT22;55037;52.354;4.992;2023-05-10T08:59:51;20.00;78.90
68217;DHT22;55037;52.354;4.992;2023-05-10T09:02:20;19.80;78.60
68217;DHT22;55037;52.354;4.992;2023-05-10T09:04:48;19.50;78.40
68217;DHT22;55037;52.354;4.992;2023-05-10T09:07:16;19.10;79.60
68217;DHT22;55037;52.354;4.992;2023-05-10T09:09:44;19.00;80.80
68217;DHT22;55037;52.354;4.992;2023-05-10T09:12:13;18.90;81.30
68217;DHT22;55037;52.354;4.992;2023-05-10T09:14:43;19.00;81.40
68217;DHT22;55037;52.354;4.992;2023-05-10T09:17:11;19.00;81.70
68217;DHT22;55037;52.354;4.992;2023-05-10T09:19:39;19.30;82.10
68217;DHT22;55037;52.354;4.992;2023-05-10T09:22:06;19.70;82.00
68217;DHT22;55037;52.354;4.992;2023-05-10T09:24:33;20.30;81.10
68217;DHT22;55037;52.354;4.992;2023-05-10T09:27:01;21.20;78.80
68217;DHT22;55037;52.354;4.992;2023-05-10T09:29:42;22.00;76.90
68217;DHT22;55037;52.354;4.992;2023-05-10T09:32:09;22.60;74.50
68217;DHT22;55037;52.354;4.992;2023-05-10T09:34:36;22.90;73.00
68217;DHT22;55037;52.354;4.992;2023-05-10T09:37:06;23.40;72.20
68217;DHT22;55037;52.354;4.992;2023-05-10T09:39:36;24.10;70.00
68217;DHT22;55037;52.354;4.992;2023-05-10T09:42:05;24.10;67.80
68217;DHT22;55037;52.354;4.992;2023-05-10T09:44:33;23.30;68.20
68217;DHT22;55037;52.354;4.992;2023-05-10T09:47:01;22.60;69.70
68217;DHT22;55037;52.354;4.992;2023-05-10T09:49:29;21.90;70.90
68217;DHT22;55037;52.354;4.992;2023-05-10T09:52:05;21.40;72.50
68217;DHT22;55037;52.354;4.992;2023-05-10T09:54:33;21.10;73.70
68217;DHT22;55037;52.354;4.992;2023-05-10T09:57:01;20.80;74.20
68217;DHT22;55037;52.354;4.992;2023-05-10T09:59:28;20.60;74.40
68217;DHT22;55037;52.354;4.992;2023-05-10T10:01:59;20.20;74.50
68217;DHT22;55037;52.354;4.992;2023-05-10T10:04:28;19.80;75.10
68217;DHT22;55037;52.354;4.992;2023-05-10T10:07:03;19.50;75.90
68217;DHT22;55037;52.354;4.992;2023-05-10T10:09:31;19.20;77.10
68217;DHT22;55037;52.354;4.992;2023-05-10T10:12:00;19.00;77.40
68217;DHT22;55037;52.354;4.992;2023-05-10T10:14:28;18.90;77.50
68217;DHT22;55037;52.354;4.992;2023-05-10T10:16:56;18.90;78.50
68217;DHT22;55037;52.354;4.992;2023-05-10T10:19:34;18.90;78.60
68217;DHT22;55037;52.354;4.992;2023-05-10T10:22:03;18.80;78.20
68217;DHT22;55037;52.354;4.992;2023-05-10T10:24:30;18.80;78.90
68217;DHT22;55037;52.354;4.992;2023-05-10T10:27:07;18.90;78.90
68217;DHT22;55037;52.354;4.992;2023-05-10T10:29:47;19.10;79.80
68217;DHT22;55037;52.354;4.992;2023-05-10T10:34:47;19.90;79.30
68217;DHT22;55037;52.354;4.992;2023-05-10T10:37:15;20.50;77.90
68217;DHT22;55037;52.354;4.992;2023-05-10T10:39:42;20.80;76.00
68217;DHT22;55037;52.354;4.992;2023-05-10T10:42:09;20.80;75.30
68217;DHT22;55037;52.354;4.992;2023-05-10T10:44:37;20.80;74.60
68217;DHT22;55037;52.354;4.992;2023-05-10T10:52:43;20.30;75.10
68217;DHT22;55037;52.354;4.992;2023-05-10T10:55:16;20.00;75.40
68217;DHT22;55037;52.354;4.992;2023-05-10T10:57:50;19.80;75.90
68217;DHT22;55037;52.354;4.992;2023-05-10T11:00:22;19.70;76.10
68217;DHT22;55037;52.354;4.992;2023-05-10T11:03:10;19.70;77.20
68217;DHT22;55037;52.354;4.992;2023-05-10T11:05:47;19.70;76.80
68217;DHT22;55037;52.354;4.992;2023-05-10T11:08:28;19.80;76.70
68217;DHT22;55037;52.354;4.992;2023-05-10T11:16:14;19.70;76.20
68217;DHT22;55037;52.354;4.992;2023-05-10T11:19:04;19.70;76.20
68217;DHT22;55037;52.354;4.992;2023-05-10T11:21:33;19.50;76.20
68217;DHT22;55037;52.354;4.992;2023-05-10T11:24:01;19.40;77.10
68217;DHT22;55037;52.354;4.992;2023-05-10T11:26:36;19.40;77.00
68217;DHT22;55037;52.354;4.992;2023-05-10T11:29:04;19.40;77.40
68217;DHT22;55037;52.354;4.992;2023-05-10T11:31:32;19.40;77.20
68217;DHT22;55037;52.354;4.992;2023-05-10T11:34:04;19.50;77.70
68217;DHT22;55037;52.354;4.992;2023-05-10T11:36:36;19.60;77.60
68217;DHT22;55037;52.354;4.992;2023-05-10T11:39:04;19.60;77.40
68217;DHT22;55037;52.354;4.992;2023-05-10T11:41:31;19.70;78.10
68217;DHT22;55037;52.354;4.992;2023-05-10T11:43:59;20.00;78.00
68217;DHT22;55037;52.354;4.992;2023-05-10T11:46:27;20.10;77.20
68217;DHT22;55037;52.354;4.992;2023-05-10T11:49:00;20.10;76.70
68217;DHT22;55037;52.354;4.992;2023-05-10T11:51:35;20.20;76.80
68217;DHT22;55037;52.354;4.992;2023-05-10T11:54:08;20.20;76.70
68217;DHT22;55037;52.354;4.992;2023-05-10T11:56:37;20.10;76.10
68217;DHT22;55037;52.354;4.992;2023-05-10T11:59:05;20.10;76.10
68217;DHT22;55037;52.354;4.992;2023-05-10T12:01:33;19.90;75.90
68217;DHT22;55037;52.354;4.992;2023-05-10T12:04:00;20.00;76.50
68217;DHT22;55037;52.354;4.992;2023-05-10T12:06:32;20.10;76.90
68217;DHT22;55037;52.354;4.992;2023-05-10T12:09:05;20.10;76.10
68217;DHT22;55037;52.354;4.992;2023-05-10T12:11:39;20.10;76.30
68217;DHT22;55037;52.354;4.992;2023-05-10T12:14:10;20.00;76.60
68217;DHT22;55037;52.354;4.992;2023-05-10T12:16:38;19.50;75.30
68217;DHT22;55037;52.354;4.992;2023-05-10T12:19:05;19.50;76.00
68217;DHT22;55037;52.354;4.992;2023-05-10T12:21:32;19.30;77.00
68217;DHT22;55037;52.354;4.992;2023-05-10T12:24:02;19.20;77.70
68217;DHT22;55037;52.354;4.992;2023-05-10T12:26:30;19.10;78.50
68217;DHT22;55037;52.354;4.992;2023-05-10T12:29:18;19.20;78.50
68217;DHT22;55037;52.354;4.992;2023-05-10T12:31:59;19.20;78.80
68217;DHT22;55037;52.354;4.992;2023-05-10T12:34:30;19.30;79.50
68217;DHT22;55037;52.354;4.992;2023-05-10T12:36:58;19.70;79.70
68217;DHT22;55037;52.354;4.992;2023-05-10T12:39:25;20.10;79.10
68217;DHT22;55037;52.354;4.992;2023-05-10T12:41:53;20.60;78.90
68217;DHT22;55037;52.354;4.992;2023-05-10T12:44:20;21.20;77.60
68217;DHT22;55037;52.354;4.992;2023-05-10T12:46:47;21.70;75.50
68217;DHT22;55037;52.354;4.992;2023-05-10T12:49:14;22.10;76.30
68217;DHT22;55037;52.354;4.992;2023-05-10T12:51:42;23.00;74.10
68217;DHT22;55037;52.354;4.992;2023-05-10T12:54:09;23.70;70.40
68217;DHT22;55037;52.354;4.992;2023-05-10T12:56:36;23.90;68.00
68217;DHT22;55037;52.354;4.992;2023-05-10T12:59:04;23.90;68.20
68217;DHT22;55037;52.354;4.992;2023-05-10T13:01:31;24.10;67.80
68217;DHT22;55037;52.354;4.992;2023-05-10T13:03:58;24.20;66.70
68217;DHT22;55037;52.354;4.992;2023-05-10T13:06:28;24.10;66.20
68217;DHT22;55037;52.354;4.992;2023-05-10T13:08:55;24.10;66.70
68217;DHT22;55037;52.354;4.992;2023-05-10T13:11:24;24.30;67.50
68217;DHT22;55037;52.354;4.992;2023-05-10T13:13:55;24.70;65.70
68217;DHT22;55037;52.354;4.992;2023-05-10T13:16:22;25.30;66.30
68217;DHT22;55037;52.354;4.992;2023-05-10T13:18:49;25.70;63.60
68217;DHT22;55037;52.354;4.992;2023-05-10T13:21:17;26.00;62.50
68217;DHT22;55037;52.354;4.992;2023-05-10T13:23:45;26.10;59.30
68217;DHT22;55037;52.354;4.992;2023-05-10T13:26:13;26.00;60.50
68217;DHT22;55037;52.354;4.992;2023-05-10T13:28:40;26.80;60.40
68217;DHT22;55037;52.354;4.992;2023-05-10T13:31:07;27.60;57.70
68217;DHT22;55037;52.354;4.992;2023-05-10T13:33:35;28.10;53.50
68217;DHT22;55037;52.354;4.992;2023-05-10T13:36:02;28.00;50.30
68217;DHT22;55037;52.354;4.992;2023-05-10T13:38:29;27.40;50.00
68217;DHT22;55037;52.354;4.992;2023-05-10T13:40:56;26.60;52.40
68217;DHT22;55037;52.354;4.992;2023-05-10T13:43:24;26.00;54.40
68217;DHT22;55037;52.354;4.992;2023-05-10T13:45:51;25.30;56.40
68217;DHT22;55037;52.354;4.992;2023-05-10T13:48:19;24.60;60.60
68217;DHT22;55037;52.354;4.992;2023-05-10T13:50:46;24.10;61.00
68217;DHT22;55037;52.354;4.992;2023-05-10T13:53:13;23.60;62.40
68217;DHT22;55037;52.354;4.992;2023-05-10T13:55:41;23.10;63.40
68217;DHT22;55037;52.354;4.992;2023-05-10T13:58:08;22.60;65.10
68217;DHT22;55037;52.354;4.992;2023-05-10T14:00:36;22.10;66.70
68217;DHT22;55037;52.354;4.992;2023-05-10T14:03:03;21.70;66.30
68217;DHT22;55037;52.354;4.992;2023-05-10T14:05:32;21.40;68.00
68217;DHT22;55037;52.354;4.992;2023-05-10T14:07:59;21.20;68.40
68217;DHT22;55037;52.354;4.992;2023-05-10T14:10:26;21.10;69.90
68217;DHT22;55037;52.354;4.992;2023-05-10T14:12:54;21.10;69.90
68217;DHT22;55037;52.354;4.992;2023-05-10T14:15:21;21.30;69.80
68217;DHT22;55037;52.354;4.992;2023-05-10T14:17:48;21.20;70.50
68217;DHT22;55037;52.354;4.992;2023-05-10T14:20:15;21.30;71.20
68217;DHT22;55037;52.354;4.992;2023-05-10T14:22:42;21.50;70.20
68217;DHT22;55037;52.354;4.992;2023-05-10T14:25:10;21.70;71.00
68217;DHT22;55037;52.354;4.992;2023-05-10T14:27:38;21.80;69.70
68217;DHT22;55037;52.354;4.992;2023-05-10T14:30:06;21.80;69.30
68217;DHT22;55037;52.354;4.992;2023-05-10T14:32:33;22.10;70.50
68217;DHT22;55037;52.354;4.992;2023-05-10T14:35:01;22.70;69.30
68217;DHT22;55037;52.354;4.992;2023-05-10T14:37:28;23.30;67.80
68217;DHT22;55037;52.354;4.992;2023-05-10T14:39:55;23.50;67.50
68217;DHT22;55037;52.354;4.992;2023-05-10T14:42:22;23.50;66.60
68217;DHT22;55037;52.354;4.992;2023-05-10T14:44:50;23.60;66.20
68217;DHT22;55037;52.354;4.992;2023-05-10T14:47:17;23.70;66.00
68217;DHT22;55037;52.354;4.992;2023-05-10T14:49:44;23.60;63.90
68217;DHT22;55037;52.354;4.992;2023-05-10T14:52:11;23.40;65.00
68217;DHT22;55037;52.354;4.992;2023-05-10T14:54:39;23.30;65.10
68217;DHT22;55037;52.354;4.992;2023-05-10T14:57:07;23.10;66.20
68217;DHT22;55037;52.354;4.992;2023-05-10T14:59:34;22.90;64.60
68217;DHT22;55037;52.354;4.992;2023-05-10T15:02:02;22.50;65.60
68217;DHT22;55037;52.354;4.992;2023-05-10T15:04:31;22.20;65.10
68217;DHT22;55037;52.354;4.992;2023-05-10T15:06:59;21.90;66.30
68217;DHT22;55037;52.354;4.992;2023-05-10T15:09:27;21.90;68.10
68217;DHT22;55037;52.354;4.992;2023-05-10T15:11:55;21.90;67.70
68217;DHT22;55037;52.354;4.992;2023-05-10T15:14:23;22.30;67.60
68217;DHT22;55037;52.354;4.992;2023-05-10T15:16:50;22.50;67.50
68217;DHT22;55037;52.354;4.992;2023-05-10T15:19:17;23.10;67.90
68217;DHT22;55037;52.354;4.992;2023-05-10T15:21:44;24.00;67.20
68217;DHT22;55037;52.354;4.992;2023-05-10T15:24:12;25.00;67.10
68217;DHT22;55037;52.354;4.992;2023-05-10T15:26:39;25.90;64.00
68217;DHT22;55037;52.354;4.992;2023-05-10T15:29:07;26.60;58.60
68217;DHT22;55037;52.354;4.992;2023-05-10T15:31:34;26.90;56.40
68217;DHT22;55037;52.354;4.992;2023-05-10T15:34:02;26.90;56.20
68217;DHT22;55037;52.354;4.992;2023-05-10T15:36:31;27.20;55.40
68217;DHT22;55037;52.354;4.992;2023-05-10T15:38:59;27.60;51.50
68217;DHT22;55037;52.354;4.992;2023-05-10T15:41:26;27.60;51.30
68217;DHT22;55037;52.354;4.992;2023-05-10T15:43:53;27.20;50.80
68217;DHT22;55037;52.354;4.992;2023-05-10T15:46:21;26.40;51.10
68217;DHT22;55037;52.354;4.992;2023-05-10T15:48:48;25.50;52.40
68217;DHT22;55037;52.354;4.992;2023-05-10T15:51:16;24.60;56.20
68217;DHT22;55037;52.354;4.992;2023-05-10T15:53:43;24.10;60.00
68217;DHT22;55037;52.354;4.992;2023-05-10T15:56:27;23.70;62.10
68217;DHT22;55037;52.354;4.992;2023-05-10T15:58:54;23.60;63.60
68217;DHT22;55037;52.354;4.992;2023-05-10T16:01:21;23.40;63.60
68217;DHT22;55037;52.354;4.992;2023-05-10T16:03:49;23.30;64.80
68217;DHT22;55037;52.354;4.992;2023-05-10T16:06:16;23.30;65.10
68217;DHT22;55037;52.354;4.992;2023-05-10T16:08:43;23.20;65.10
68217;DHT22;55037;52.354;4.992;2023-05-10T16:11:10;23.20;66.10
68217;DHT22;55037;52.354;4.992;2023-05-10T16:13:38;23.20;65.90
68217;DHT22;55037;52.354;4.992;2023-05-10T16:16:05;23.20;66.30